| time (UTC) | temp F | wind direction | speed MPH | gust MPH | rain 1hr in | rain 24hr in | rain mn in | humidity % | barometer mb |
| 20260504045028 | 47 | 242 | 2.0 | 8.0 | 0.00 | 0.00 | 0.00 | 58 | 1005.8 |
| 20260504044030 | 47 | 213 | 4.0 | 9.0 | 0.00 | 0.00 | 0.00 | 58 | 1005.8 |
| 20260504043037 | 47 | 209 | 5.0 | 8.0 | 0.00 | 0.00 | 0.00 | 57 | 1005.9 |
| 20260504042046 | 47 | 179 | 4.0 | 10.0 | 0.00 | 0.00 | 0.00 | 56 | 1006.1 |
| 20260504041046 | 47 | 213 | 3.0 | 8.0 | 0.00 | 0.00 | 0.00 | 57 | 1006.0 |
| 20260504040106 | 46 | 195 | 3.0 | 6.0 | 0.00 | 0.00 | 0.00 | 59 | 1006.0 |
| 20260504035041 | 46 | 214 | 4.0 | 10.0 | 0.00 | 0.00 | 0.00 | 62 | 1006.0 |
| 20260504034051 | 46 | 168 | 3.0 | 6.0 | 0.00 | 0.00 | 0.00 | 62 | 1005.9 |
| 20260504033028 | 47 | 176 | 4.0 | 7.0 | 0.00 | 0.00 | 0.00 | 60 | 1006.0 |
| 20260504032029 | 47 | 181 | 4.0 | 7.0 | 0.00 | 0.00 | 0.00 | 56 | 1006.0 |
| 20260504031023 | 48 | 171 | 3.0 | 10.0 | 0.00 | 0.00 | 0.00 | 54 | 1006.0 |
| 20260504030026 | 48 | 164 | 5.0 | 12.0 | 0.00 | 0.00 | 0.00 | 53 | 1006.0 |
| 20260504025035 | 48 | 214 | 6.0 | 10.0 | 0.00 | 0.00 | 0.00 | 53 | 1006.0 |
| 20260504024037 | 48 | 189 | 4.0 | 8.0 | 0.00 | 0.00 | 0.00 | 53 | 1006.2 |
| 20260504023029 | 49 | 198 | 3.0 | 7.0 | 0.00 | 0.00 | 0.00 | 52 | 1006.3 |
| 20260504022032 | 49 | 180 | 3.0 | 10.0 | 0.00 | 0.00 | 0.00 | 51 | 1006.3 |
| 20260504021040 | 49 | 236 | 5.0 | 9.0 | 0.00 | 0.00 | 0.00 | 49 | 1006.5 |
| 20260504020042 | 50 | 190 | 4.0 | 11.0 | 0.00 | 0.00 | 0.00 | 48 | 1006.5 |
| 20260504015031 | 50 | 227 | 7.0 | 13.0 | 0.00 | 0.00 | 0.00 | 48 | 1006.7 |
| 20260504014031 | 50 | 203 | 5.0 | 12.0 | 0.00 | 0.00 | 0.00 | 47 | 1006.6 |
| 20260504013041 | 51 | 165 | 9.0 | 16.0 | 0.00 | 0.00 | 0.00 | 47 | 1006.6 |
| 20260504012043 | 51 | 234 | 7.0 | 16.0 | 0.00 | 0.00 | 0.00 | 47 | 1006.7 |
| 20260504011033 | 51 | 249 | 7.0 | 12.0 | 0.00 | 0.00 | 0.00 | 46 | 1006.6 |
| 20260504010033 | 51 | 228 | 6.0 | 12.0 | 0.00 | 0.00 | 0.00 | 46 | 1006.7 |
| 20260504005041 | 51 | 211 | 7.0 | 10.0 | 0.00 | 0.00 | 0.00 | 45 | 1006.4 |
| 20260504004114 | 52 | 211 | 7.0 | 12.0 | 0.00 | 0.00 | 0.00 | 44 | 1006.4 |
| 20260504003035 | 52 | 257 | 8.0 | 15.0 | 0.00 | 0.00 | 0.00 | 44 | 1006.4 |
| 20260504002046 | 52 | 215 | 7.0 | 16.0 | 0.00 | 0.00 | 0.00 | 43 | 1006.3 |
| 20260504001027 | 52 | 221 | 7.0 | 16.0 | 0.00 | 0.00 | 0.00 | 43 | 1006.3 |
| 20260504000028 | 52 | 221 | 7.0 | 16.0 | 0.00 | 0.00 | 0.00 | 42 | 1006.2 |
| 20260503235035 | 53 | 235 | 5.0 | 15.0 | 0.00 | 0.00 | 0.00 | 41 | 1006.3 |
| 20260503234037 | 53 | 198 | 10.0 | 16.0 | 0.00 | 0.00 | 0.00 | 39 | 1006.5 |
| 20260503233028 | 53 | 275 | 6.0 | 13.0 | 0.00 | 0.00 | 0.00 | 38 | 1006.2 |
| 20260503232032 | 54 | 235 | 4.0 | 12.0 | 0.00 | 0.00 | 0.00 | 36 | 1006.1 |
| 20260503231037 | 54 | 316 | 4.0 | 9.0 | 0.00 | 0.00 | 0.00 | 36 | 1006.2 |
| 20260503230049 | 54 | 289 | 6.0 | 12.0 | 0.00 | 0.00 | 0.00 | 35 | 1006.3 |
| 20260503225102 | 54 | 290 | 5.0 | 17.0 | 0.00 | 0.00 | 0.00 | 36 | 1006.3 |
| 20260503224045 | 54 | 242 | 10.0 | 17.0 | 0.00 | 0.00 | 0.00 | 35 | 1006.2 |
| 20260503223055 | 54 | 266 | 10.0 | 15.0 | 0.00 | 0.00 | 0.00 | 35 | 1006.2 |
| 20260503222032 | 54 | 254 | 9.0 | 16.0 | 0.00 | 0.00 | 0.00 | 35 | 1006.2 |
| 20260503221030 | 55 | 289 | 7.0 | 16.0 | 0.00 | 0.00 | 0.00 | 35 | 1006.2 |
| 20260503220038 | 54 | 259 | 9.0 | 15.0 | 0.00 | 0.00 | 0.00 | 35 | 1006.3 |
| 20260503215048 | 54 | 219 | 7.0 | 15.0 | 0.00 | 0.00 | 0.00 | 35 | 1006.3 |
| 20260503214046 | 55 | 249 | 10.0 | 20.0 | 0.00 | 0.00 | 0.00 | 34 | 1006.3 |
| 20260503213049 | 54 | 292 | 9.0 | 15.0 | 0.00 | 0.00 | 0.00 | 34 | 1006.3 |
| 20260503212032 | 54 | 278 | 5.0 | 18.0 | 0.00 | 0.00 | 0.00 | 35 | 1006.3 |
| 20260503211028 | 55 | 240 | 10.0 | 20.0 | 0.00 | 0.00 | 0.00 | 36 | 1006.1 |
| 20260503210038 | 53 | 303 | 9.0 | 22.0 | 0.00 | 0.00 | 0.00 | 38 | 1006.3 |
| 20260503205048 | 53 | 258 | 9.0 | 17.0 | 0.00 | 0.00 | 0.00 | 38 | 1006.3 |
| 20260503204030 | 53 | 240 | 10.0 | 20.0 | 0.00 | 0.00 | 0.00 | 38 | 1006.3 |
| 20260503203039 | 54 | 283 | 11.0 | 18.0 | 0.00 | 0.00 | 0.00 | 38 | 1006.5 |
| 20260503202036 | 53 | 278 | 8.0 | 20.0 | 0.00 | 0.00 | 0.00 | 39 | 1006.5 |
| 20260503201028 | 53 | 232 | 11.0 | 18.0 | 0.00 | 0.00 | 0.00 | 38 | 1006.6 |
| 20260503200057 | 53 | 274 | 10.0 | 17.0 | 0.00 | 0.00 | 0.00 | 40 | 1006.6 |
| 20260503195057 | 52 | 248 | 9.0 | 16.0 | 0.00 | 0.00 | 0.00 | 40 | 1006.8 |
| 20260503194025 | 52 | 266 | 9.0 | 17.0 | 0.00 | 0.00 | 0.00 | 40 | 1007.1 |
| 20260503193028 | 52 | 259 | 6.0 | 14.0 | 0.00 | 0.00 | 0.00 | 40 | 1007.1 |
| 20260503192034 | 53 | 214 | 9.0 | 16.0 | 0.00 | 0.00 | 0.00 | 40 | 1007.2 |
| 20260503191037 | 53 | 273 | 10.0 | 18.0 | 0.00 | 0.00 | 0.00 | 41 | 1007.2 |
| 20260503190045 | 52 | 252 | 9.0 | 19.0 | 0.00 | 0.00 | 0.00 | 42 | 1007.3 |
| 20260503185051 | 52 | 291 | 5.0 | 16.0 | 0.00 | 0.04 | 0.00 | 41 | 1007.5 |
| 20260503184032 | 51 | 251 | 9.0 | 15.0 | 0.00 | 0.04 | 0.00 | 41 | 1007.6 |
| 20260503183044 | 52 | 277 | 4.0 | 11.0 | 0.00 | 0.04 | 0.00 | 43 | 1007.6 |
| 20260503182024 | 51 | 291 | 5.0 | 14.0 | 0.00 | 0.04 | 0.00 | 43 | 1007.8 |
| 20260503181051 | 51 | 289 | 6.0 | 12.0 | 0.00 | 0.04 | 0.00 | 44 | 1008.0 |
| 20260503180030 | 50 | 264 | 12.0 | 18.0 | 0.00 | 0.16 | 0.00 | 45 | 1008.0 |
| 20260503175040 | 50 | 302 | 10.0 | 16.0 | 0.00 | 0.16 | 0.00 | 44 | 1008.0 |
| 20260503174051 | 49 | 264 | 4.0 | 12.0 | 0.00 | 0.16 | 0.00 | 48 | 1008.1 |
| 20260503173031 | 49 | 281 | 8.0 | 14.0 | 0.00 | 0.16 | 0.00 | 47 | 1008.1 |
| 20260503172033 | 49 | 278 | 5.0 | 12.0 | 0.00 | 0.16 | 0.00 | 49 | 1008.1 |
| 20260503171024 | 49 | 303 | 5.0 | 14.0 | 0.00 | 0.16 | 0.00 | 49 | 1008.4 |
| 20260503131034 | 44 | 53 | 1.0 | 3.0 | 0.00 | 0.16 | 0.00 | 69 | 1011.1 |
| 20260503081035 | 39 | 280 | 1.0 | 4.0 | 0.00 | 0.63 | 0.00 | 84 | 1011.0 |
| 20260503072036 | 40 | 333 | 1.0 | 4.0 | 0.00 | 0.63 | 0.00 | 82 | 1011.0 |
| 20260503071043 | 40 | 288 | 2.0 | 4.0 | 0.00 | 0.63 | 0.00 | 81 | 1011.0 |